Time;durP1;ratioP1;P1;durP2;ratioP2;P2;SDS_P1;SDS_P2;PMS_P1;PMS_P2;Temp;Humidity;BMP_temperature;BMP_pressure;BME280_temperature;BME280_humidity;BME280_pressure;Samples;Min_cycle;Max_cycle;Signal;HPM_P1;HPM_P2
2023/03/03 00:02:51;;;;;;;46.90;25.53;;;;;;;6.35;52.72;98982.28;6997583;28;20273;-81
2023/03/03 00:06:14;;;;;;;46.70;26.37;;;;;;;6.10;53.97;98993.25;6986742;28;20329;-81
2023/03/03 00:09:35;;;;;;;45.50;26.83;;;;;;;6.50;53.50;99011.84;7008953;28;20312;-81
2023/03/03 00:12:59;;;;;;;52.57;29.13;;;;;;;5.88;54.71;99012.69;7009146;28;20702;-81
2023/03/03 00:16:25;;;;;;;45.60;27.03;;;;;;;6.34;53.66;99015.41;7008105;28;20199;-81
2023/03/03 00:19:48;;;;;;;43.90;25.20;;;;;;;6.01;54.40;99016.50;7009268;28;20363;-81
2023/03/03 00:23:20;;;;;;;44.73;25.63;;;;;;;6.36;53.70;99015.25;7009160;28;20211;-81
2023/03/03 00:26:45;;;;;;;43.93;25.30;;;;;;;6.54;52.57;99016.66;7008473;28;20232;-81
2023/03/03 00:30:17;;;;;;;40.47;24.90;;;;;;;6.47;52.69;99004.13;7007343;28;20324;-81
2023/03/03 00:33:43;;;;;;;42.63;25.93;;;;;;;6.23;53.53;99004.22;7009232;28;20266;-81
2023/03/03 00:37:22;;;;;;;47.80;26.83;;;;;;;6.40;53.08;98973.72;7007740;28;20762;-81
2023/03/03 00:40:44;;;;;;;45.57;26.70;;;;;;;6.57;51.88;98994.91;7007961;28;20229;-81
2023/03/03 00:44:39;;;;;;;42.30;25.80;;;;;;;6.24;52.39;99004.06;7009813;28;20294;-81
2023/03/03 00:48:17;;;;;;;52.17;26.87;;;;;;;6.01;53.25;98980.91;7008142;28;20652;-81
2023/03/03 00:51:38;;;;;;;46.77;25.53;;;;;;;5.98;53.68;99011.53;7009121;28;20196;-81
2023/03/03 00:55:00;;;;;;;44.70;26.33;;;;;;;5.98;54.38;99005.31;7008626;28;20267;-82
2023/03/03 00:58:22;;;;;;;45.97;26.57;;;;;;;6.02;53.59;98963.84;7006899;28;20251;-81
2023/03/03 01:01:44;;;;;;;40.57;26.33;;;;;;;5.99;53.71;99015.88;7007866;28;20286;-81
2023/03/03 01:05:08;;;;;;;42.77;27.03;;;;;;;6.22;53.85;99010.59;7008679;28;20643;-81
2023/03/03 01:08:29;;;;;;;42.60;25.40;;;;;;;6.47;52.18;98996.09;7008525;28;20315;-81
2023/03/03 01:11:51;;;;;;;38.83;23.37;;;;;;;6.37;51.73;98992.81;7008417;28;20254;-82
2023/03/03 01:15:14;;;;;;;42.47;24.03;;;;;;;5.97;52.51;98990.28;7008783;28;20266;-81
2023/03/03 01:18:36;;;;;;;43.63;26.07;;;;;;;5.89;53.17;98998.34;7007893;28;20729;-81
2023/03/03 01:21:59;;;;;;;40.03;25.77;;;;;;;6.01;52.59;98978.25;7008690;28;20249;-81
2023/03/03 01:25:20;;;;;;;44.87;26.07;;;;;;;6.22;52.66;98999.88;7007792;28;20236;-81
2023/03/03 01:28:42;;;;;;;45.23;26.67;;;;;;;5.66;53.56;99010.72;7008304;28;20316;-81
2023/03/03 01:32:03;;;;;;;52.97;30.00;;;;;;;4.87;55.60;99013.19;7008734;28;20211;-81
2023/03/03 01:35:25;;;;;;;46.30;27.50;;;;;;;4.96;57.33;99009.53;7008936;28;20246;-81
2023/03/03 01:38:48;;;;;;;48.27;28.50;;;;;;;5.23;56.38;99016.41;7007529;28;20788;-81
2023/03/03 01:42:09;;;;;;;50.70;29.57;;;;;;;5.49;55.31;99009.06;7007957;28;20217;-81
2023/03/03 01:45:44;;;;;;;53.97;28.20;;;;;;;5.67;54.49;99007.84;7008974;28;20322;-81
2023/03/03 01:49:08;;;;;;;52.50;28.23;;;;;;;5.36;54.77;99012.22;7008210;28;20327;-81
2023/03/03 01:52:34;;;;;;;54.47;29.40;;;;;;;4.83;55.68;98987.81;7008275;28;20239;-81
2023/03/03 01:55:57;;;;;;;52.50;30.13;;;;;;;5.10;56.12;99008.03;7007044;28;20266;-81
2023/03/03 01:59:21;;;;;;;52.20;28.30;;;;;;;5.16;55.20;98959.28;7007305;28;20266;-80
2023/03/03 02:02:43;;;;;;;48.47;27.13;;;;;;;5.58;54.96;99006.22;6995972;28;20203;-82
2023/03/03 02:06:07;;;;;;;47.80;27.67;;;;;;;5.77;53.46;98975.59;7002606;28;20591;-82
2023/03/03 02:09:33;;;;;;;53.23;28.67;;;;;;;5.56;54.05;98981.50;7008697;28;20300;-81
2023/03/03 02:12:57;;;;;;;47.93;28.70;;;;;;;5.44;54.08;98992.69;7005755;28;20201;-82
2023/03/03 02:16:19;;;;;;;48.30;28.73;;;;;;;5.42;54.92;98992.03;7004610;28;20282;-81
2023/03/03 02:19:48;;;;;;;44.47;26.63;;;;;;;5.73;52.76;98968.91;7004319;28;20776;-81
2023/03/03 02:23:13;;;;;;;50.83;27.37;;;;;;;5.20;53.87;98939.25;7004491;28;20272;-81
2023/03/03 02:26:39;;;;;;;50.33;27.67;;;;;;;5.04;54.83;98963.28;7002640;28;20249;-82
2023/03/03 02:30:09;;;;;;;49.67;28.47;;;;;;;5.03;55.77;98981.16;7002202;28;20243;-81
2023/03/03 02:33:31;;;;;;;51.80;29.73;;;;;;;4.98;55.75;98970.13;7001471;28;20221;-81
2023/03/03 02:36:52;;;;;;;58.30;29.20;;;;;;;5.33;55.76;98979.66;7001037;28;20714;-81
2023/03/03 02:40:15;;;;;;;57.00;30.53;;;;;;;5.32;55.79;98972.63;7002267;28;20226;-81
2023/03/03 02:43:42;;;;;;;52.13;30.10;;;;;;;5.58;55.17;98955.41;7001398;28;20551;-81
2023/03/03 02:47:04;;;;;;;49.40;26.83;;;;;;;5.64;53.82;98956.53;6999564;28;20692;-81
2023/03/03 02:50:26;;;;;;;55.03;29.27;;;;;;;5.86;53.97;98975.44;7000604;28;20694;-81
2023/03/03 02:53:47;;;;;;;47.93;27.13;;;;;;;5.93;53.37;98981.75;6999958;28;20592;-81
2023/03/03 02:57:09;;;;;;;45.00;27.93;;;;;;;5.63;53.35;98986.97;6998523;28;20260;-81
2023/03/03 03:00:32;;;;;;;53.30;29.37;;;;;;;5.37;55.06;98983.66;7000254;28;20229;-81
2023/03/03 03:03:53;;;;;;;46.90;28.83;;;;;;;5.61;54.65;98971.09;6999148;28;20216;-81
2023/03/03 03:07:15;;;;;;;51.40;31.13;;;;;;;5.65;54.00;98956.38;6999539;28;20280;-81
2023/03/03 03:10:37;;;;;;;49.67;28.43;;;;;;;5.87;52.62;98982.44;6999460;28;20233;-81
2023/03/03 03:13:58;;;;;;;51.83;29.40;;;;;;;5.44;53.69;98988.19;6999111;28;20204;-81
2023/03/03 03:17:21;;;;;;;57.30;29.80;;;;;;;4.79;56.37;98981.13;6998877;28;20234;-81
2023/03/03 03:20:42;;;;;;;52.47;29.13;;;;;;;5.28;56.64;98982.00;6999631;28;20959;-81
2023/03/03 03:24:04;;;;;;;51.23;28.33;;;;;;;5.69;55.35;98971.09;6998821;28;20213;-82
2023/03/03 03:27:26;;;;;;;50.80;29.77;;;;;;;5.50;55.60;98989.34;6998119;28;20232;-82
2023/03/03 03:30:47;;;;;;;50.50;28.97;;;;;;;5.45;55.53;99000.53;6998444;28;20353;-82
2023/03/03 03:34:10;;;;;;;54.77;29.67;;;;;;;5.62;55.94;98986.16;6997631;28;20209;-82
2023/03/03 03:37:32;;;;;;;51.73;29.20;;;;;;;5.44;55.69;98949.91;6999622;28;20227;-81
2023/03/03 03:40:54;;;;;;;52.23;28.13;;;;;;;5.74;55.46;98989.28;7005326;28;20326;-82
2023/03/03 03:44:15;;;;;;;48.20;28.83;;;;;;;5.69;55.70;98986.28;6997910;28;20208;-82
2023/03/03 03:47:37;;;;;;;53.87;29.77;;;;;;;5.80;55.54;98984.16;6996912;28;20227;-81
2023/03/03 03:51:00;;;;;;;54.57;28.80;;;;;;;5.93;55.29;98981.75;6998255;28;20705;-82
2023/03/03 03:54:21;;;;;;;56.43;31.20;;;;;;;5.82;55.62;98994.66;6997306;28;20263;-81
2023/03/03 03:57:43;;;;;;;63.70;36.50;;;;;;;6.43;54.04;98984.09;6995709;28;20613;-82
2023/03/03 04:01:06;;;;;;;46.60;29.57;;;;;;;5.66;55.56;98983.97;6997803;28;20276;-82
2023/03/03 04:04:27;;;;;;;55.83;30.70;;;;;;;5.93;55.24;98962.19;6983070;28;20333;-81
2023/03/03 04:07:50;;;;;;;47.73;27.93;;;;;;;5.47;55.44;98902.28;6988675;28;20233;-82
2023/03/03 04:11:12;;;;;;;51.70;30.57;;;;;;;5.67;55.91;98951.69;7003241;28;20211;-81
2023/03/03 04:14:33;;;;;;;52.77;29.60;;;;;;;6.38;55.02;98983.78;7002398;28;20264;-82
2023/03/03 04:17:55;;;;;;;56.23;29.83;;;;;;;6.29;54.40;98991.00;7008151;28;20228;-82
2023/03/03 04:21:17;;;;;;;52.00;29.50;;;;;;;6.11;55.30;98987.72;7009031;28;20269;-82
2023/03/03 04:24:40;;;;;;;49.80;28.60;;;;;;;6.15;54.99;98991.75;7008343;28;20689;-81
2023/03/03 04:28:01;;;;;;;52.63;29.57;;;;;;;5.97;55.82;98995.63;7006788;28;20284;-81
2023/03/03 04:31:24;;;;;;;53.30;30.17;;;;;;;5.78;56.07;99010.19;7006477;28;20297;-81
2023/03/03 04:34:45;;;;;;;55.60;31.00;;;;;;;6.14;56.09;99005.28;7004027;28;20571;-81
2023/03/03 04:38:07;;;;;;;51.40;28.97;;;;;;;6.00;55.64;98996.13;7004852;28;20227;-81
2023/03/03 04:41:30;;;;;;;55.60;30.17;;;;;;;6.42;55.35;98996.63;7006827;28;20260;-81
2023/03/03 04:44:51;;;;;;;51.23;30.07;;;;;;;6.35;54.78;98995.66;7005909;28;20361;-81
2023/03/03 04:48:13;;;;;;;50.43;29.37;;;;;;;6.11;55.56;98998.44;7003477;28;20715;-82
2023/03/03 04:51:34;;;;;;;59.00;31.43;;;;;;;6.12;55.70;99010.81;7004618;28;20207;-81
2023/03/03 04:54:56;;;;;;;51.60;28.67;;;;;;;6.26;55.89;99012.75;7004972;28;20210;-82
2023/03/03 04:58:19;;;;;;;53.20;30.80;;;;;;;6.13;55.65;99000.94;7002941;28;20238;-80
2023/03/03 05:01:41;;;;;;;46.03;28.40;;;;;;;6.02;56.36;99028.06;7004335;28;20267;-81
2023/03/03 05:05:02;;;;;;;47.23;27.37;;;;;;;6.29;55.84;99020.44;7004373;28;20212;-82
2023/03/03 05:08:24;;;;;;;47.90;28.50;;;;;;;6.11;55.87;99019.84;7003017;28;20317;-81
2023/03/03 05:11:45;;;;;;;53.43;29.10;;;;;;;6.05;56.77;99022.34;7003036;28;20727;-82
2023/03/03 05:15:09;;;;;;;49.37;29.57;;;;;;;6.41;56.01;99010.19;7003836;28;20215;-82
2023/03/03 05:18:30;;;;;;;56.67;30.63;;;;;;;6.72;54.89;99021.78;7001279;28;20659;-81
2023/03/03 05:21:52;;;;;;;47.23;28.10;;;;;;;6.75;54.11;99016.06;7002244;28;20204;-81
2023/03/03 05:25:14;;;;;;;49.03;30.00;;;;;;;6.57;54.83;99015.47;7001788;28;20740;-82
2023/03/03 05:28:35;;;;;;;53.87;29.27;;;;;;;6.98;53.65;99022.28;7001200;28;20322;-82
2023/03/03 05:31:58;;;;;;;52.47;29.47;;;;;;;6.79;53.90;99030.78;7003256;28;20584;-81
2023/03/03 05:35:19;;;;;;;58.97;29.83;;;;;;;6.50;54.78;99030.59;6994381;28;20687;-83
2023/03/03 05:38:41;;;;;;;49.07;29.20;;;;;;;6.62;54.27;98987.16;7003498;28;20358;-81
2023/03/03 05:42:03;;;;;;;55.17;30.13;;;;;;;7.09;53.76;99022.72;7001773;28;20259;-82
2023/03/03 05:45:24;;;;;;;47.27;28.40;;;;;;;6.94;53.66;99002.19;6999666;28;20905;-80
2023/03/03 05:48:47;;;;;;;48.73;29.00;;;;;;;7.21;53.11;99037.38;6996281;28;20300;-81
2023/03/03 05:52:08;;;;;;;48.60;28.00;;;;;;;7.23;52.81;99038.03;6997986;28;20339;-81
2023/03/03 05:55:30;;;;;;;48.73;27.13;;;;;;;7.30;52.74;99041.66;6986136;28;20194;-81
2023/03/03 05:58:51;;;;;;;50.30;29.83;;;;;;;6.94;52.97;99047.75;6993315;28;20262;-81
2023/03/03 06:02:13;;;;;;;50.13;29.60;;;;;;;6.46;54.87;99054.19;6998402;28;20197;-81
2023/03/03 06:05:36;;;;;;;54.30;31.77;;;;;;;6.53;55.21;99051.66;6997825;28;20226;-81
2023/03/03 06:08:57;;;;;;;54.03;31.33;;;;;;;6.57;55.49;99048.47;6997065;28;20254;-81
2023/03/03 06:12:19;;;;;;;57.37;32.60;;;;;;;6.69;55.16;99051.59;6997803;28;20612;-81
2023/03/03 06:15:40;;;;;;;52.27;29.83;;;;;;;6.77;54.96;99048.88;6998017;28;20617;-80
2023/03/03 06:19:02;;;;;;;53.97;31.13;;;;;;;7.04;54.59;99059.09;6997413;28;20287;-81
2023/03/03 06:22:25;;;;;;;47.70;29.03;;;;;;;7.00;54.18;99063.13;6997061;28;20316;-81
2023/03/03 06:25:46;;;;;;;52.27;29.43;;;;;;;6.99;54.34;99058.78;6985858;28;20371;-80
2023/03/03 06:29:08;;;;;;;49.23;29.57;;;;;;;7.23;53.98;99072.03;6999968;28;20221;-80
2023/03/03 06:32:29;;;;;;;58.30;32.20;;;;;;;7.34;52.78;99077.84;6999715;28;20230;-81
2023/03/03 06:35:51;;;;;;;49.40;29.77;;;;;;;7.54;52.22;99076.34;6998556;28;20296;-81
2023/03/03 06:39:14;;;;;;;46.90;28.10;;;;;;;7.55;52.75;99061.09;6999908;28;20756;-81
2023/03/03 06:42:35;;;;;;;55.43;30.93;;;;;;;7.57;52.77;99081.38;7000209;28;20294;-80
2023/03/03 06:45:57;;;;;;;50.90;28.93;;;;;;;7.35;52.15;99076.84;6999064;28;20694;-81
2023/03/03 06:49:18;;;;;;;57.80;31.40;;;;;;;6.96;54.11;99078.75;6998429;28;20228;-81
2023/03/03 06:52:40;;;;;;;53.20;29.57;;;;;;;6.91;54.59;99089.19;6999168;28;20822;-81
2023/03/03 06:56:08;;;;;;;54.90;31.10;;;;;;;7.11;54.64;99097.59;6997619;28;20213;-80
2023/03/03 06:59:30;;;;;;;59.00;31.33;;;;;;;7.47;53.85;99088.81;6998792;28;20380;-81
2023/03/03 07:02:54;;;;;;;52.47;30.73;;;;;;;7.47;53.20;99075.41;6999075;28;20298;-80
2023/03/03 07:06:23;;;;;;;54.83;30.87;;;;;;;7.63;52.94;99103.97;6998019;28;20670;-81
2023/03/03 07:09:47;;;;;;;53.07;29.50;;;;;;;7.84;52.14;99093.41;6997902;28;20230;-81
2023/03/03 07:13:19;;;;;;;52.57;29.27;;;;;;;7.80;52.82;99092.94;6998203;28;20216;-80
2023/03/03 07:16:41;;;;;;;54.63;32.00;;;;;;;7.72;52.61;99102.91;6998233;28;20205;-81
2023/03/03 07:20:09;;;;;;;46.63;29.40;;;;;;;8.02;52.17;99108.16;6998595;28;20291;-80
2023/03/03 07:23:41;;;;;;;49.53;29.20;;;;;;;8.19;51.25;99112.34;6997522;28;20192;-81
2023/03/03 07:27:11;;;;;;;54.03;31.07;;;;;;;8.21;51.45;99112.22;6997325;28;20222;-81
2023/03/03 07:30:34;;;;;;;51.40;29.60;;;;;;;8.08;51.63;99107.41;6996737;28;20256;-80
2023/03/03 07:33:57;;;;;;;51.40;29.83;;;;;;;8.25;51.39;99114.34;6997680;28;20744;-80
2023/03/03 07:37:28;;;;;;;51.17;30.00;;;;;;;8.49;50.77;99106.03;6991747;28;20209;-79
2023/03/03 07:40:51;;;;;;;51.43;30.03;;;;;;;8.76;50.40;99112.59;6979534;28;20226;-80
2023/03/03 07:44:19;;;;;;;54.23;29.60;;;;;;;8.78;48.93;99110.59;6976117;28;20210;-80
2023/03/03 07:47:42;;;;;;;50.53;29.87;;;;;;;9.02;49.35;99115.66;6999772;28;20297;-80
2023/03/03 07:51:05;;;;;;;50.83;28.57;;;;;;;9.29;48.98;99118.47;7002875;28;20282;-80
2023/03/03 07:54:33;;;;;;;49.70;29.07;;;;;;;9.80;46.13;99120.88;7002028;28;20579;-80
2023/03/03 07:57:56;;;;;;;50.63;29.47;;;;;;;9.62;47.19;99122.38;7000529;28;20217;-80
2023/03/03 08:01:39;;;;;;;52.50;31.60;;;;;;;8.91;48.66;99126.88;7001665;28;20254;-80
2023/03/03 08:05:21;;;;;;;51.27;29.40;;;;;;;8.63;48.61;99132.09;7001291;28;20214;-80
2023/03/03 08:08:46;;;;;;;45.23;28.87;;;;;;;8.31;49.87;99128.91;6986441;28;20381;-80
2023/03/03 08:12:37;;;;;;;48.47;29.47;;;;;;;7.87;50.49;99123.41;7002386;28;20650;-79
2023/03/03 08:16:01;;;;;;;51.20;28.77;;;;;;;7.89;51.17;99126.72;6977077;28;20306;-80
2023/03/03 08:19:23;;;;;;;48.50;28.87;;;;;;;7.77;51.36;99133.53;6974876;28;20230;-80
2023/03/03 08:22:47;;;;;;;50.43;28.03;;;;;;;8.38;49.86;99137.91;6972840;28;20807;-80
2023/03/03 08:26:08;;;;;;;46.67;28.57;;;;;;;8.69;49.16;99131.34;6973808;28;20317;-80
2023/03/03 08:29:30;;;;;;;42.97;26.77;;;;;;;9.03;48.16;99127.06;6974377;28;20279;-81
2023/03/03 08:32:51;;;;;;;48.80;28.77;;;;;;;8.83;48.37;99135.88;6973917;28;20206;-80
2023/03/03 08:36:13;;;;;;;47.10;28.50;;;;;;;9.45;47.18;99131.72;6994636;28;20271;-80
2023/03/03 08:39:36;;;;;;;45.13;28.10;;;;;;;9.68;46.45;99124.31;7006880;28;20755;-79
2023/03/03 08:42:58;;;;;;;39.60;25.93;;;;;;;10.66;44.59;99123.28;7003030;28;20728;-80
2023/03/03 08:46:19;;;;;;;43.80;27.07;;;;;;;10.76;43.68;99127.31;7003580;28;20229;-79
2023/03/03 08:49:41;;;;;;;41.77;24.70;;;;;;;11.81;42.02;99106.97;6986751;28;20872;-80
2023/03/03 08:53:03;;;;;;;40.00;26.30;;;;;;;10.63;43.84;99142.56;6988100;28;20670;-79
2023/03/03 08:56:26;;;;;;;35.50;24.40;;;;;;;10.62;43.03;99081.59;6975537;28;20202;-80
2023/03/03 08:59:48;;;;;;;37.47;24.80;;;;;;;10.50;43.48;99143.28;6990953;28;20690;-80
2023/03/03 09:03:09;;;;;;;41.77;25.20;;;;;;;10.69;42.94;99133.69;7002584;28;20206;-79
2023/03/03 09:06:31;;;;;;;40.17;24.93;;;;;;;11.31;42.56;99148.75;7000754;28;20236;-80
2023/03/03 09:09:52;;;;;;;41.90;26.23;;;;;;;10.37;43.46;99094.69;7001862;28;20316;-80
2023/03/03 09:13:17;;;;;;;43.77;27.60;;;;;;;11.27;43.86;99139.38;7000382;28;20214;-80
2023/03/03 09:16:41;;;;;;;40.97;24.20;;;;;;;11.64;42.45;99143.50;6999205;28;20284;-80
2023/03/03 09:20:22;;;;;;;37.60;23.67;;;;;;;12.08;41.05;99158.13;6995399;28;20312;-80
2023/03/03 09:23:47;;;;;;;44.90;26.07;;;;;;;12.29;40.78;99154.41;7000137;28;20186;-80
2023/03/03 09:27:16;;;;;;;39.53;25.10;;;;;;;12.29;39.97;99151.72;6998745;28;20311;-80
2023/03/03 09:30:43;;;;;;;40.10;24.97;;;;;;;11.95;41.06;99154.56;6998572;28;20224;-81
2023/03/03 09:34:14;;;;;;;40.47;24.13;;;;;;;11.68;41.04;99121.28;6998670;28;20739;-80
2023/03/03 09:37:39;;;;;;;37.50;24.93;;;;;;;12.31;40.25;99160.44;6998845;28;20191;-80
2023/03/03 09:41:39;;;;;;;42.40;26.20;;;;;;;11.98;41.73;99146.06;6999375;28;20238;-81
2023/03/03 09:45:23;;;;;;;39.07;25.03;;;;;;;11.84;41.23;99152.47;6996296;28;20282;-80
2023/03/03 09:48:51;;;;;;;34.87;24.00;;;;;;;12.64;40.36;99145.03;6997537;28;20714;-81
2023/03/03 09:52:26;;;;;;;36.07;24.00;;;;;;;12.12;41.78;99145.03;6999136;28;20188;-80
2023/03/03 09:55:50;;;;;;;36.47;24.47;;;;;;;11.49;42.16;99121.19;6998433;28;20704;-80
2023/03/03 09:59:26;;;;;;;35.50;24.40;;;;;;;12.07;41.02;99144.81;6981277;28;20344;-80
2023/03/03 10:03:00;;;;;;;35.40;24.47;;;;;;;11.89;41.78;99158.09;6987855;28;20247;-80
2023/03/03 10:06:27;;;;;;;40.57;25.60;;;;;;;11.78;41.38;99164.94;6999584;28;20719;-80
2023/03/03 10:10:04;;;;;;;36.90;25.23;;;;;;;11.53;42.34;99157.56;6999725;28;20282;-79
2023/03/03 10:13:35;;;;;;;40.33;26.20;;;;;;;11.10;43.21;99159.63;6998507;28;20697;-81
2023/03/03 10:17:17;;;;;;;36.93;23.60;;;;;;;12.15;40.75;99148.16;6993570;28;20265;-80
2023/03/03 10:20:46;;;;;;;34.13;23.27;;;;;;;13.03;38.91;99142.28;6971476;28;20313;-80
2023/03/03 10:24:21;;;;;;;36.30;24.90;;;;;;;12.66;40.42;99160.03;6996246;28;20594;-80
2023/03/03 10:28:04;;;;;;;36.90;24.90;;;;;;;13.21;39.97;99143.25;6999513;28;20218;-80
2023/03/03 10:31:34;;;;;;;39.53;26.13;;;;;;;13.11;39.64;99148.28;6998710;28;20614;-80
2023/03/03 10:35:14;;;;;;;37.93;26.47;;;;;;;11.95;40.99;99160.81;6997564;28;20324;-83
2023/03/03 10:38:45;;;;;;;38.20;25.67;;;;;;;11.83;42.04;99157.06;6997998;28;20308;-81
2023/03/03 10:42:24;;;;;;;38.00;25.73;;;;;;;12.85;40.05;99134.81;6979432;28;20281;-79
2023/03/03 10:45:56;;;;;;;42.83;26.67;;;;;;;13.40;40.19;99149.66;6973945;28;20677;-80
2023/03/03 10:49:22;;;;;;;41.07;27.60;;;;;;;12.84;40.01;99145.81;6971257;28;20286;-80
2023/03/03 10:52:47;;;;;;;42.77;26.87;;;;;;;13.15;40.87;99135.19;6973241;28;20639;-81
2023/03/03 10:56:17;;;;;;;41.33;27.63;;;;;;;12.82;40.46;99126.28;6974701;28;20208;-81
2023/03/03 10:59:53;;;;;;;42.23;27.87;;;;;;;13.34;39.45;99137.78;6974122;28;20237;-82
2023/03/03 11:03:39;;;;;;;43.70;27.87;;;;;;;13.18;39.75;99132.03;6978812;28;20202;-79
2023/03/03 11:07:05;;;;;;;40.63;27.97;;;;;;;12.22;41.71;99146.28;7001690;28;20241;-79
2023/03/03 11:10:51;;;;;;;36.67;25.23;;;;;;;12.63;40.61;99155.00;7000417;28;20234;-80
2023/03/03 11:14:17;;;;;;;43.47;27.97;;;;;;;13.07;40.16;99140.81;6966664;28;20411;-80
2023/03/03 11:17:53;;;;;;;42.37;28.83;;;;;;;12.78;40.97;99146.66;7008160;28;20272;-80
2023/03/03 11:21:19;;;;;;;41.17;28.47;;;;;;;13.22;39.46;99122.44;6999948;28;20282;-79
2023/03/03 11:24:49;;;;;;;47.00;28.33;;;;;;;13.38;40.01;99154.44;6997495;28;20205;-81
2023/03/03 11:28:26;;;;;;;40.10;27.47;;;;;;;13.08;40.33;99153.28;6997477;28;20236;-80
2023/03/03 11:31:49;;;;;;;40.27;28.50;;;;;;;13.66;39.22;99149.53;6968663;28;20183;-80
2023/03/03 11:35:22;;;;;;;36.50;25.43;;;;;;;14.63;37.60;99143.44;6969773;28;20268;-80
2023/03/03 11:38:52;;;;;;;34.27;25.73;;;;;;;15.05;35.86;99112.72;6968826;28;20252;-81
2023/03/03 11:42:21;;;;;;;36.37;24.37;;;;;;;15.23;35.48;99136.34;6970018;28;20189;-80
2023/03/03 11:45:44;;;;;;;34.00;23.67;;;;;;;14.83;36.37;99118.81;6968230;28;20593;-81
2023/03/03 11:49:09;;;;;;;34.97;23.73;;;;;;;14.45;36.99;99137.16;6968080;28;20239;-81
2023/03/03 11:52:42;;;;;;;32.80;23.37;;;;;;;14.40;37.34;99123.41;6968939;28;20200;-79
2023/03/03 11:56:10;;;;;;;33.40;24.43;;;;;;;14.91;35.63;99116.66;6967887;28;20187;-79
2023/03/03 12:00:00;;;;;;;50.87;34.33;;;;;;;14.56;36.64;99117.41;6971648;28;20245;-80
2023/03/03 12:03:27;;;;;;;32.17;23.30;;;;;;;14.88;36.15;99094.56;6994136;28;20743;-80
2023/03/03 12:07:03;;;;;;;32.17;21.93;;;;;;;15.18;35.34;99088.16;6994253;28;20211;-79
2023/03/03 12:10:30;;;;;;;31.30;22.40;;;;;;;14.93;35.64;99100.94;6995127;28;20234;-78
2023/03/03 12:13:57;;;;;;;29.47;21.67;;;;;;;15.11;34.87;99092.00;6995312;28;20189;-79
2023/03/03 12:17:33;;;;;;;31.87;21.33;;;;;;;14.41;36.14;99090.66;6994588;28;20201;-78
2023/03/03 12:21:03;;;;;;;35.37;21.03;;;;;;;14.28;36.34;99092.63;6995159;28;20280;-78
2023/03/03 12:24:33;;;;;;;26.30;20.13;;;;;;;14.02;36.99;99071.94;6995514;28;20192;-79
2023/03/03 12:28:01;;;;;;;28.53;20.30;;;;;;;14.78;36.12;99086.09;6998495;28;20212;-80
2023/03/03 12:31:39;;;;;;;29.50;21.63;;;;;;;14.84;36.04;99079.75;7000214;28;20274;-79
2023/03/03 12:35:07;;;;;;;30.67;21.07;;;;;;;14.76;34.94;99070.03;6972921;28;20212;-79
2023/03/03 12:38:36;;;;;;;27.40;20.37;;;;;;;14.55;36.06;99084.03;6971619;28;20690;-78
2023/03/03 12:42:03;;;;;;;31.00;21.67;;;;;;;14.81;35.50;99080.22;6971678;28;20196;-80
2023/03/03 12:45:36;;;;;;;28.93;21.27;;;;;;;14.73;35.00;99058.78;6988329;28;20213;-79
2023/03/03 12:48:58;;;;;;;28.17;20.87;;;;;;;15.01;35.50;99078.09;6992613;28;20231;-80
2023/03/03 12:52:24;;;;;;;32.50;21.80;;;;;;;15.13;35.66;99076.28;6975724;28;20212;-78
2023/03/03 12:55:50;;;;;;;28.20;19.83;;;;;;;15.54;34.11;99074.53;6984102;28;20277;-77
2023/03/03 12:59:16;;;;;;;32.13;21.03;;;;;;;15.58;34.13;99066.75;6977951;28;20752;-80
2023/03/03 13:02:55;;;;;;;30.37;20.50;;;;;;;15.19;33.99;99045.50;6968909;28;20205;-77
2023/03/03 13:06:23;;;;;;;28.10;20.67;;;;;;;15.14;34.08;99057.06;6970223;28;20210;-80
2023/03/03 13:09:59;;;;;;;26.77;19.87;;;;;;;15.31;33.89;99071.69;6970567;28;20369;-77
2023/03/03 13:13:26;;;;;;;26.00;19.57;;;;;;;14.84;34.77;99058.03;6971080;28;20192;-77
2023/03/03 13:16:58;;;;;;;30.23;20.70;;;;;;;15.29;34.13;99071.06;6975761;28;20318;-77
2023/03/03 13:20:30;;;;;;;28.83;20.00;;;;;;;15.40;33.94;99061.34;6970732;28;20603;-77
2023/03/03 13:23:55;;;;;;;29.97;20.13;;;;;;;14.83;34.83;99075.38;6971083;28;20269;-78
2023/03/03 13:27:19;;;;;;;30.27;20.30;;;;;;;14.87;34.77;99057.59;6970252;28;20646;-81
2023/03/03 13:30:46;;;;;;;26.60;19.63;;;;;;;15.72;33.90;99058.16;6982481;28;20236;-78
2023/03/03 13:34:13;;;;;;;29.43;19.67;;;;;;;15.63;33.27;99048.69;6993201;28;20226;-81
2023/03/03 13:37:40;;;;;;;26.23;19.03;;;;;;;15.82;33.51;99038.56;6996942;28;20189;-79
2023/03/03 13:41:07;;;;;;;26.53;19.73;;;;;;;16.09;33.24;99045.22;6998241;28;20228;-79
2023/03/03 13:44:31;;;;;;;25.13;18.13;;;;;;;15.84;32.81;99047.31;6998982;28;20603;-79
2023/03/03 13:48:02;;;;;;;25.73;20.27;;;;;;;16.06;32.70;99046.56;6997100;28;20300;-78
2023/03/03 13:51:31;;;;;;;29.60;18.27;;;;;;;15.44;32.88;99038.09;6997748;28;20676;-78
2023/03/03 13:55:16;;;;;;;26.40;20.10;;;;;;;15.65;33.13;99015.84;6997831;28;20237;-78
2023/03/03 13:58:41;;;;;;;30.47;19.03;;;;;;;15.65;32.90;99038.41;6996747;28;20566;-78
2023/03/03 14:02:16;;;;;;;29.93;19.97;;;;;;;15.13;34.40;99028.25;6997477;28;20261;-79
2023/03/03 14:05:41;;;;;;;25.83;18.87;;;;;;;15.93;32.95;99030.44;6997118;28;20614;-79
2023/03/03 14:09:12;;;;;;;26.50;19.47;;;;;;;14.91;33.61;99039.78;6996441;28;20317;-81
2023/03/03 14:12:40;;;;;;;28.27;19.07;;;;;;;15.26;33.42;99005.50;6997196;28;20216;-79
2023/03/03 14:16:05;;;;;;;29.87;20.27;;;;;;;15.07;33.39;99022.88;6989377;28;20253;-80
2023/03/03 14:19:31;;;;;;;25.93;19.90;;;;;;;15.64;32.92;99019.63;6968720;28;20311;-81
2023/03/03 14:22:55;;;;;;;24.97;17.07;;;;;;;15.49;32.65;99013.75;6969845;28;20338;-79
2023/03/03 14:26:16;;;;;;;25.73;18.17;;;;;;;14.41;34.55;99027.41;6968624;28;20242;-78
2023/03/03 14:29:39;;;;;;;27.27;20.80;;;;;;;15.04;34.39;99013.31;6968228;28;20654;-79
2023/03/03 14:33:05;;;;;;;25.93;19.43;;;;;;;15.65;32.61;99005.81;6969096;28;20203;-78
2023/03/03 14:36:29;;;;;;;26.27;19.47;;;;;;;15.57;32.87;99016.97;6968559;28;20331;-79
2023/03/03 14:40:01;;;;;;;25.20;19.23;;;;;;;15.78;32.44;99021.06;6968974;28;20226;-78
2023/03/03 14:43:24;;;;;;;28.57;18.83;;;;;;;15.17;33.47;99013.13;6969272;28;20565;-78
2023/03/03 14:47:01;;;;;;;26.27;19.20;;;;;;;15.20;32.72;98999.09;6969302;28;20403;-77
2023/03/03 14:50:35;;;;;;;26.93;19.53;;;;;;;15.51;33.35;99022.53;6969208;28;20266;-79
2023/03/03 14:53:57;;;;;;;24.20;18.40;;;;;;;15.51;32.70;99019.81;6968978;28;20628;-79
2023/03/03 14:57:20;;;;;;;28.33;19.10;;;;;;;15.35;32.93;99025.91;6967498;28;20215;-81
2023/03/03 15:00:42;;;;;;;25.83;18.93;;;;;;;15.64;32.93;99006.84;6968264;28;20901;-79
2023/03/03 15:04:10;;;;;;;27.47;19.43;;;;;;;15.84;32.50;99006.53;6974268;28;20363;-81
2023/03/03 15:07:35;;;;;;;30.97;20.87;;;;;;;15.40;33.33;99007.00;6995495;28;20354;-78
2023/03/03 15:11:12;;;;;;;25.83;18.53;;;;;;;15.58;32.66;99010.47;6995397;28;20237;-78
2023/03/03 15:14:37;;;;;;;35.77;20.40;;;;;;;15.06;33.20;98951.47;6995993;28;20649;-78
2023/03/03 15:18:02;;;;;;;31.00;19.80;;;;;;;15.58;33.29;98994.19;6995399;28;20351;-79
2023/03/03 15:21:27;;;;;;;27.90;18.97;;;;;;;15.47;32.92;98988.72;6996514;28;20292;-79
2023/03/03 15:24:54;;;;;;;30.40;21.13;;;;;;;15.34;33.16;98997.88;6995674;28;20300;-80
2023/03/03 15:28:24;;;;;;;27.20;19.53;;;;;;;14.97;34.29;98999.00;6993870;28;20320;-80
2023/03/03 15:31:52;;;;;;;27.97;20.20;;;;;;;15.37;33.58;99004.75;6995300;28;20341;-80
2023/03/03 15:35:26;;;;;;;25.53;18.80;;;;;;;15.45;33.01;98999.00;6977918;28;20203;-79
2023/03/03 15:38:56;;;;;;;24.83;19.00;;;;;;;15.59;32.96;98993.13;6974885;28;20220;-80
2023/03/03 15:42:24;;;;;;;25.70;18.50;;;;;;;15.08;33.67;98973.78;6977951;28;20246;-81
2023/03/03 15:45:51;;;;;;;24.47;18.80;;;;;;;15.54;32.89;98994.88;6985446;28;20792;-80
2023/03/03 15:49:20;;;;;;;28.20;18.80;;;;;;;15.83;32.77;98983.13;7001888;28;20238;-80
2023/03/03 15:52:49;;;;;;;28.60;19.67;;;;;;;15.15;33.67;98979.94;7003064;28;20279;-80
2023/03/03 15:56:23;;;;;;;29.50;19.67;;;;;;;15.25;33.79;98991.09;7000380;28;20223;-80